createdAt,value
2018-01-04T00:02:08.469Z,7.00
2018-01-04T00:04:36.757Z,6.80
2018-01-04T00:09:33.595Z,6.80
2018-01-04T00:12:01.926Z,6.80
2018-01-04T00:14:30.226Z,6.80
2018-01-04T00:16:58.513Z,6.90
2018-01-04T00:19:26.788Z,7.10
2018-01-04T00:21:55.155Z,7.10
2018-01-04T00:24:23.492Z,6.90
2018-01-04T00:29:20.056Z,7.00
2018-01-04T00:31:50.094Z,7.00
2018-01-04T00:34:18.004Z,7.00
2018-01-04T00:36:46.304Z,7.00
2018-01-04T00:39:13.816Z,7.00
2018-01-04T00:41:41.753Z,7.00
2018-01-04T00:44:10.071Z,6.90
2018-01-04T00:46:38.375Z,6.90
2018-01-04T00:49:06.674Z,7.10
2018-01-04T00:51:34.192Z,7.10
2018-01-04T00:54:02.836Z,7.20
2018-01-04T00:56:30.374Z,7.50
2018-01-04T00:58:58.765Z,7.50
2018-01-04T01:01:27.808Z,7.70
2018-01-04T01:03:55.716Z,7.90
2018-01-04T01:06:24.748Z,7.90
2018-01-04T01:08:52.337Z,7.80
2018-01-04T01:11:20.634Z,7.50
2018-01-04T01:13:48.916Z,7.30
2018-01-04T01:16:17.209Z,7.20
2018-01-04T01:18:45.488Z,7.10
2018-01-04T01:21:14.131Z,7.10
2018-01-04T01:23:42.465Z,7.10
2018-01-04T01:26:10.738Z,7.30
2018-01-04T01:28:39.041Z,7.50
2018-01-04T01:31:07.324Z,7.60
2018-01-04T01:33:35.619Z,7.70
2018-01-04T01:36:03.902Z,7.60
2018-01-04T01:38:32.557Z,7.50
2018-01-04T01:41:00.830Z,7.50
2018-01-04T01:43:29.125Z,7.50
2018-01-04T01:45:57.411Z,7.40
2018-01-04T01:48:25.701Z,7.40
2018-01-04T01:50:53.977Z,7.40
2018-01-04T01:53:22.269Z,7.70
2018-01-04T01:55:50.717Z,7.60
2018-01-04T01:58:19.005Z,7.90
2018-01-04T02:00:46.510Z,7.80
2018-01-04T02:03:14.694Z,7.70
2018-01-04T02:05:42.617Z,7.80
2018-01-04T02:08:11.344Z,7.70
2018-01-04T02:10:39.623Z,7.50
2018-01-04T02:13:08.661Z,7.50
2018-01-04T02:15:36.574Z,7.50
2018-01-04T02:18:16.285Z,7.80
2018-01-04T02:20:55.405Z,7.80
2018-01-04T02:23:36.066Z,7.90
2018-01-04T02:26:04.356Z,8.10
2018-01-04T02:28:44.477Z,8.30
2018-01-04T02:31:23.745Z,8.20
2018-01-04T02:34:03.058Z,8.00
2018-01-04T02:36:43.397Z,7.90
2018-01-04T02:39:23.556Z,8.00
2018-01-04T02:42:02.852Z,7.80
2018-01-04T02:44:43.660Z,7.90
2018-01-04T02:47:11.351Z,8.10
2018-01-04T02:49:39.654Z,8.20
2018-01-04T02:52:07.933Z,8.20
2018-01-04T02:54:36.282Z,8.00
2018-01-04T02:57:03.756Z,8.10
2018-01-04T02:59:31.682Z,8.10
2018-01-04T03:01:59.980Z,8.00
2018-01-04T03:04:28.293Z,8.00
2018-01-04T03:06:56.605Z,7.80
2018-01-04T03:09:24.145Z,7.70
2018-01-04T03:11:52.063Z,8.10
2018-01-04T03:14:20.377Z,8.00
2018-01-04T03:16:48.669Z,8.20
2018-01-04T03:19:17.226Z,8.40
2018-01-04T03:21:52.136Z,8.40
2018-01-04T03:24:20.434Z,8.20
2018-01-04T03:26:53.499Z,8.00
2018-01-04T03:29:27.364Z,8.00
2018-01-04T03:32:01.009Z,8.10
2018-01-04T03:34:35.646Z,8.30
2018-01-04T03:40:14.489Z,8.10
2018-01-04T03:42:48.361Z,8.30
2018-01-04T03:45:22.858Z,8.50
2018-01-04T03:48:12.556Z,8.60
2018-01-04T03:50:45.641Z,8.70
2018-01-04T03:53:19.124Z,8.50
2018-01-04T03:55:53.076Z,8.30
2018-01-04T03:58:21.355Z,8.00
2018-01-04T04:01:04.559Z,8.10
2018-01-04T04:03:32.071Z,7.80
2018-01-04T04:06:06.769Z,7.60
2018-01-04T04:08:39.905Z,7.30
2018-01-04T04:11:08.204Z,7.20
2018-01-04T04:13:36.486Z,7.10
2018-01-04T04:16:04.788Z,7.10
2018-01-04T04:18:33.065Z,7.30
2018-01-04T04:21:00.612Z,7.30
2018-01-04T04:23:28.522Z,7.10
2018-01-04T04:25:56.820Z,7.00
2018-01-04T04:28:25.098Z,7.00
2018-01-04T04:30:52.624Z,7.10
2018-01-04T04:33:20.556Z,6.90
2018-01-04T04:35:49.766Z,7.00
2018-01-04T04:38:17.293Z,7.10
2018-01-04T04:40:45.611Z,7.00
2018-01-04T04:43:13.890Z,7.20
2018-01-04T04:45:42.200Z,7.30
2018-01-04T04:48:10.467Z,7.40
2018-01-04T04:50:37.992Z,7.50
2018-01-04T04:53:05.896Z,7.70
2018-01-04T04:55:34.196Z,7.90
2018-01-04T04:58:02.608Z,8.10
2018-01-04T05:00:30.904Z,7.80
2018-01-04T05:02:59.177Z,7.50
2018-01-04T05:05:27.452Z,7.40
2018-01-04T05:07:57.757Z,7.60
2018-01-04T05:10:25.667Z,7.70
2018-01-04T05:12:53.961Z,7.80
2018-01-04T05:15:22.237Z,7.90
2018-01-04T05:17:50.582Z,7.70
2018-01-04T05:20:18.857Z,7.30
2018-01-04T05:22:46.428Z,7.20
2018-01-04T05:25:14.326Z,7.60
2018-01-04T05:27:42.625Z,7.60
2018-01-04T05:30:10.991Z,7.30
2018-01-04T05:32:39.253Z,7.30
2018-01-04T05:35:07.524Z,7.10
2018-01-04T05:37:35.834Z,7.00
2018-01-04T05:40:03.337Z,7.00
2018-01-04T05:42:31.268Z,7.20
2018-01-04T05:44:59.548Z,7.40
2018-01-04T05:47:27.894Z,7.60
2018-01-04T05:49:55.810Z,7.70
2018-01-04T05:52:23.328Z,7.80
2018-01-04T05:54:51.606Z,8.00
2018-01-04T05:57:19.888Z,8.20
2018-01-04T05:59:47.389Z,8.40
2018-01-04T06:02:16.058Z,8.50
2018-01-04T06:04:43.569Z,8.60
2018-01-04T06:07:11.864Z,8.50
2018-01-04T06:09:39.430Z,8.60
2018-01-04T06:12:07.356Z,8.60
2018-01-04T06:14:35.629Z,8.70
2018-01-04T06:17:03.935Z,8.70
2018-01-04T06:19:31.449Z,8.40
2018-01-04T06:21:59.381Z,8.30
2018-01-04T06:24:27.652Z,8.30
2018-01-04T06:26:55.992Z,8.20
2018-01-04T06:29:24.293Z,7.90
2018-01-04T06:31:52.576Z,8.10
2018-01-04T06:34:21.328Z,8.40
2018-01-04T06:36:49.609Z,8.50
2018-01-04T06:39:17.906Z,8.40
2018-01-04T06:41:46.178Z,8.40
2018-01-04T06:44:14.504Z,8.50
2018-01-04T06:46:42.788Z,8.60
2018-01-04T06:49:11.087Z,8.50
2018-01-04T06:51:39.357Z,8.50
2018-01-04T06:54:06.892Z,8.30
2018-01-04T06:56:34.803Z,8.10
2018-01-04T06:59:03.100Z,7.70
2018-01-04T07:01:31.385Z,7.70
2018-01-04T07:03:59.685Z,7.90
2018-01-04T07:06:27.199Z,7.80
2018-01-04T07:08:55.923Z,8.10
2018-01-04T07:11:23.821Z,8.20
2018-01-04T07:13:51.738Z,8.30
2018-01-04T07:16:20.016Z,8.30
2018-01-04T07:18:47.536Z,8.10
2018-01-04T07:21:15.439Z,8.30
2018-01-04T07:23:43.732Z,8.40
2018-01-04T07:26:12.807Z,8.60
2018-01-04T07:28:41.750Z,8.80
2018-01-04T07:31:09.255Z,9.00
2018-01-04T07:33:37.172Z,8.90
2018-01-04T07:36:05.451Z,8.90
2018-01-04T07:38:33.745Z,8.70
2018-01-04T07:41:01.253Z,8.80
2018-01-04T07:43:29.553Z,8.70
2018-01-04T07:45:57.460Z,8.50
2018-01-04T07:48:25.753Z,8.60
2018-01-04T07:50:53.299Z,8.50
2018-01-04T07:53:21.883Z,8.70
2018-01-04T07:55:49.392Z,8.70
2018-01-04T07:58:17.673Z,8.80
2018-01-04T08:00:45.197Z,8.90
2018-01-04T08:03:13.479Z,9.00
2018-01-04T08:05:41.410Z,8.70
2018-01-04T08:08:08.927Z,8.80
2018-01-04T08:10:36.854Z,8.80
2018-01-04T08:13:05.136Z,9.00
2018-01-04T08:15:33.425Z,9.00
2018-01-04T08:18:02.548Z,9.10
2018-01-04T08:20:30.964Z,9.20
2018-01-04T08:22:58.917Z,10.60
2018-01-04T08:25:26.817Z,9.20
2018-01-04T08:27:55.098Z,9.30
2018-01-04T08:30:22.635Z,9.40
2018-01-04T08:32:50.583Z,9.40
2018-01-04T08:35:18.901Z,9.30
2018-01-04T08:37:48.438Z,9.30
2018-01-04T08:40:16.729Z,9.30
2018-01-04T08:42:45.011Z,9.20
2018-01-04T08:45:13.461Z,9.00
2018-01-04T08:47:41.782Z,9.00
2018-01-04T08:50:10.817Z,9.10
2018-01-04T08:52:38.732Z,9.30
2018-01-04T08:55:07.029Z,9.30
2018-01-04T08:57:35.363Z,9.30
2018-01-04T09:00:03.664Z,9.40
2018-01-04T09:02:31.944Z,9.40
2018-01-04T09:05:00.236Z,9.40
2018-01-04T09:07:28.521Z,9.40
2018-01-04T09:09:56.816Z,9.40
2018-01-04T09:12:25.092Z,10.40
2018-01-04T09:14:54.548Z,11.30
2018-01-04T09:17:22.063Z,12.00
2018-01-04T09:19:50.340Z,12.50
2018-01-04T09:22:18.645Z,12.80
2018-01-04T09:24:46.918Z,13.10
2018-01-04T09:27:15.206Z,13.20
2018-01-04T09:29:43.121Z,13.20
2018-01-04T09:32:10.653Z,13.20
2018-01-04T09:34:38.929Z,13.10
2018-01-04T09:37:06.537Z,13.00
2018-01-04T09:39:34.433Z,13.10
2018-01-04T09:42:02.723Z,13.00
2018-01-04T09:44:31.004Z,13.00
2018-01-04T09:46:59.308Z,13.00
2018-01-04T09:49:27.599Z,13.00
2018-01-04T11:13:53.741Z,9.70
2018-01-04T11:16:22.016Z,9.90
2018-01-04T11:18:50.333Z,10.00
2018-01-04T11:21:18.621Z,10.20
2018-01-04T11:23:46.916Z,9.90
2018-01-04T11:26:15.200Z,9.90
2018-01-04T11:28:43.490Z,10.00
2018-01-04T11:31:11.004Z,10.10
2018-01-04T11:33:38.929Z,10.30
2018-01-04T11:36:08.002Z,10.10
2018-01-04T11:38:36.301Z,9.90
2018-01-04T11:41:03.882Z,10.00
2018-01-04T11:43:32.178Z,10.00
2018-01-04T11:46:00.774Z,10.20
2018-01-04T11:48:29.752Z,9.90
2018-01-04T11:50:57.244Z,9.60
2018-01-04T11:53:25.588Z,9.50
2018-01-04T11:55:53.854Z,9.60
2018-01-04T11:58:22.294Z,9.80
2018-01-04T12:00:50.700Z,9.80
2018-01-04T12:03:19.041Z,9.60
2018-01-04T12:05:48.193Z,9.70
2018-01-04T12:08:15.725Z,9.40
2018-01-04T12:10:44.008Z,9.40
2018-01-04T12:13:12.562Z,9.60
2018-01-04T12:15:40.830Z,9.80
2018-01-04T12:18:09.125Z,9.60
2018-01-04T12:20:37.418Z,9.80
2018-01-04T12:23:06.353Z,9.80
2018-01-04T12:25:33.890Z,10.00
2018-01-04T12:28:02.180Z,9.80
2018-01-04T12:30:29.766Z,9.90
2018-01-04T12:32:57.756Z,10.00
2018-01-04T12:35:26.066Z,10.10
2018-01-04T12:37:54.365Z,10.10
2018-01-04T12:40:22.667Z,9.80
2018-01-04T12:42:51.505Z,9.90
2018-01-04T12:45:19.425Z,10.00
2018-01-04T12:47:47.704Z,10.10
2018-01-04T12:50:16.536Z,9.90
2018-01-04T12:52:44.442Z,9.90
2018-01-04T12:55:12.735Z,10.00
2018-01-04T12:57:41.118Z,10.10
2018-01-04T13:00:09.410Z,10.20
2018-01-04T13:02:37.694Z,10.40
2018-01-04T13:05:05.225Z,10.30
2018-01-04T13:07:33.136Z,10.40
2018-01-04T13:10:02.272Z,10.40
2018-01-04T13:12:29.848Z,10.40
2018-01-04T13:14:58.161Z,10.20
2018-01-04T13:17:26.437Z,10.10
2018-01-04T13:19:54.875Z,10.10
2018-01-04T13:22:23.162Z,10.20
2018-01-04T13:24:51.461Z,10.00
2018-01-04T13:27:19.741Z,10.00
2018-01-04T13:29:48.294Z,10.00
2018-01-04T13:32:16.568Z,10.00
2018-01-04T13:34:44.857Z,10.10
2018-01-04T13:37:14.060Z,10.20
2018-01-04T13:39:41.573Z,10.30
2018-01-04T13:42:09.865Z,10.30
2018-01-04T13:44:38.262Z,9.90
2018-01-04T13:47:06.561Z,9.80
2018-01-04T13:49:34.874Z,10.00
2018-01-04T13:52:03.178Z,10.20
2018-01-04T13:54:31.444Z,10.40
2018-01-04T13:57:00.274Z,10.40
2018-01-04T13:59:28.171Z,10.50
2018-01-04T14:01:55.706Z,10.30
2018-01-04T14:04:23.620Z,10.30
2018-01-04T14:06:51.916Z,10.30
2018-01-04T14:09:20.209Z,10.30
2018-01-04T14:11:48.513Z,10.30
2018-01-04T14:14:16.800Z,10.50
2018-01-04T14:16:45.104Z,10.40
2018-01-04T14:19:13.426Z,10.40
2018-01-04T14:21:40.962Z,10.50
2018-01-04T14:24:08.874Z,10.60
2018-01-04T14:26:37.172Z,10.50
2018-01-04T14:29:04.671Z,10.60
2018-01-04T14:31:32.597Z,10.70
2018-01-04T14:34:01.026Z,10.70
2018-01-04T14:36:29.325Z,10.70
2018-01-04T14:38:57.606Z,10.80
2018-01-04T14:41:25.909Z,10.80
2018-01-04T14:43:54.204Z,10.90
2018-01-04T14:46:22.634Z,10.90
2018-01-04T14:48:50.924Z,10.50
2018-01-04T14:51:19.346Z,10.60
2018-01-04T14:53:47.622Z,10.70
2018-01-04T14:56:15.921Z,10.90
2018-01-04T14:58:44.192Z,11.00
2018-01-04T15:01:11.704Z,11.10
2018-01-04T15:03:39.776Z,11.10
2018-01-04T15:06:08.049Z,11.20
2018-01-04T15:08:36.353Z,11.00
2018-01-04T15:11:05.465Z,11.20
2018-01-04T23:01:44.322Z,11.00
2018-01-04T23:04:11.906Z,11.00
2018-01-04T23:06:40.284Z,11.20
2018-01-04T23:09:08.608Z,11.20
2018-01-04T23:11:36.959Z,11.30
2018-01-04T23:14:05.304Z,11.60
2018-01-04T23:16:33.653Z,11.70
2018-01-04T23:19:01.989Z,11.70
2018-01-04T23:21:30.339Z,11.70
2018-01-04T23:23:58.663Z,11.70
2018-01-04T23:26:27.004Z,11.40
2018-01-04T23:28:55.343Z,11.40
2018-01-04T23:31:25.457Z,11.50
2018-01-04T23:33:53.435Z,11.60
2018-01-04T23:36:21.788Z,11.70
2018-01-04T23:38:50.102Z,11.80
2018-01-04T23:41:19.386Z,11.90
2018-01-04T23:43:46.955Z,11.80
2018-01-04T23:46:14.931Z,11.60
2018-01-04T23:48:43.822Z,11.70
2018-01-04T23:51:12.148Z,11.60
2018-01-04T23:53:40.103Z,11.60
2018-01-04T23:56:08.420Z,11.40
2018-01-04T23:58:36.736Z,11.50
